Time;durP1;ratioP1;P1;durP2;ratioP2;P2;SDS_P1;SDS_P2;PMS_P1;PMS_P2;Temp;Humidity;BMP_temperature;BMP_pressure;BME280_temperature;BME280_humidity;BME280_pressure;Samples;Min_cycle;Max_cycle;Signal;HPM_P1;HPM_P2
2021/08/07 00:01:57;;;;;;;;;0.00;0.00;;;;;23.15;45.35;100050.72;5056123;28;45688;-55
2021/08/07 00:04:23;;;;;;;;;0.00;0.00;;;;;23.15;45.56;100046.25;5056085;28;45540;-58
2021/08/07 00:06:48;;;;;;;;;1.00;1.00;;;;;23.13;45.48;100045.53;5055743;28;45244;-58
2021/08/07 00:09:14;;;;;;;;;1.00;1.00;;;;;23.14;45.45;100043.75;5055832;28;45200;-54
2021/08/07 00:11:39;;;;;;;;;0.00;0.00;;;;;23.14;45.54;100054.31;5055968;28;45648;-58
2021/08/07 00:14:04;;;;;;;;;1.00;1.00;;;;;23.15;45.18;100056.00;5056353;28;45300;-59
2021/08/07 00:16:30;;;;;;;;;0.00;0.00;;;;;23.13;45.41;100053.47;5055587;28;45495;-49
2021/08/07 00:18:55;;;;;;;;;2.25;1.00;;;;;23.13;45.32;100042.06;5055770;28;45440;-51
2021/08/07 00:21:20;;;;;;;;;1.25;1.00;;;;;23.13;45.55;100053.47;5055786;28;45394;-50
2021/08/07 00:23:46;;;;;;;;;1.00;1.00;;;;;23.10;45.44;100039.66;5056600;28;45359;-55
2021/08/07 00:26:11;;;;;;;;;1.00;0.50;;;;;23.11;45.26;100044.81;5059089;28;46141;-48
2021/08/07 00:28:36;;;;;;;;;1.25;1.25;;;;;23.12;45.62;100045.66;5059438;28;45414;-49
2021/08/07 00:31:02;;;;;;;;;1.25;1.25;;;;;23.12;45.30;100040.38;5059157;28;45327;-54
2021/08/07 00:33:27;;;;;;;;;2.50;0.25;;;;;23.12;45.55;100041.19;5059365;28;45438;-58
2021/08/07 00:35:52;;;;;;;;;1.00;1.00;;;;;23.10;45.26;100037.84;5058964;28;45432;-56
2021/08/07 00:38:18;;;;;;;;;1.00;1.00;;;;;23.10;45.45;100032.53;5058776;28;47957;-59
2021/08/07 00:40:43;;;;;;;;;2.00;2.00;;;;;23.09;45.47;100032.69;5059132;28;45295;-56
2021/08/07 00:43:10;;;;;;;;;3.00;1.25;;;;;23.08;45.47;100033.63;5059467;28;45333;-55
2021/08/07 00:45:37;;;;;;;;;1.50;1.00;;;;;23.10;45.51;100035.19;5059007;28;45610;-55
2021/08/07 00:48:02;;;;;;;;;1.00;0.00;;;;;23.10;45.60;100027.25;5058821;28;45698;-52
2021/08/07 00:50:27;;;;;;;;;1.00;0.00;;;;;23.10;45.44;100032.53;5058988;28;45331;-50
2021/08/07 00:52:53;;;;;;;;;1.00;0.50;;;;;23.10;45.77;100032.53;5058933;28;45484;-55
2021/08/07 00:55:18;;;;;;;;;1.75;1.75;;;;;23.10;45.40;100032.53;5040503;28;46896;-54
2021/08/07 00:57:43;;;;;;;;;1.50;1.50;;;;;23.10;45.54;100037.84;5040484;28;45282;-50
2021/08/07 01:00:09;;;;;;;;;3.00;1.00;;;;;23.08;45.46;100029.22;5059071;28;45711;-56
2021/08/07 01:02:35;;;;;;;;;0.25;0.25;;;;;23.09;45.48;100030.91;5058963;28;45254;-59
2021/08/07 01:05:05;;;;;;;;;4.00;1.00;;;;;23.09;45.64;100024.75;5058382;28;45465;-52
2021/08/07 01:07:48;;;;;;;;;1.50;1.00;;;;;23.09;45.32;100019.47;5058387;28;45696;-50
2021/08/07 01:10:35;;;;;;;;;1.00;1.00;;;;;23.08;45.68;100023.06;5058766;28;45410;-49
2021/08/07 01:13:25;;;;;;;;;1.25;1.00;;;;;23.08;45.64;100026.56;5058896;28;45425;-55
2021/08/07 01:15:57;;;;;;;;;1.75;1.00;;;;;23.07;45.39;100021.38;5058327;28;45477;-63
2021/08/07 01:18:27;;;;;;;;;0.00;0.00;;;;;23.07;45.40;100016.94;5058447;28;45229;-63
2021/08/07 01:20:54;;;;;;;;;0.00;0.00;;;;;23.06;45.36;100015.28;5058530;28;45424;-61
2021/08/07 01:23:29;;;;;;;;;1.25;1.00;;;;;23.06;45.73;100009.97;5058503;28;45317;-60
2021/08/07 01:26:11;;;;;;;;;0.50;0.50;;;;;23.06;45.41;100025.84;5058238;28;45428;-61
2021/08/07 01:28:39;;;;;;;;;1.25;1.25;;;;;23.06;45.47;100015.28;5058635;28;45333;-54
2021/08/07 01:31:08;;;;;;;;;1.00;1.00;;;;;23.04;45.53;100011.91;5058279;28;45376;-55
2021/08/07 01:33:35;;;;;;;;;0.25;0.25;;;;;23.01;45.38;100010.34;5058311;28;45376;-60
2021/08/07 01:36:03;;;;;;;;;3.50;1.50;;;;;23.06;45.62;100015.28;5057130;28;46559;-55
2021/08/07 01:38:29;;;;;;;;;1.25;1.00;;;;;23.05;45.57;100007.44;5058033;28;45685;-59
2021/08/07 01:40:54;;;;;;;;;0.50;0.50;;;;;23.05;45.53;100007.44;5040078;28;45313;-55
2021/08/07 01:43:20;;;;;;;;;1.00;1.00;;;;;23.04;45.61;100009.25;5058343;28;45488;-52
2021/08/07 01:45:46;;;;;;;;;1.00;0.00;;;;;23.04;45.47;100003.97;5057909;28;46535;-57
2021/08/07 01:48:37;;;;;;;;;1.00;1.00;;;;;23.04;45.64;100008.44;5058198;28;45307;-52
2021/08/07 01:51:10;;;;;;;;;2.00;0.75;;;;;23.04;45.37;100005.78;5057899;28;45283;-53
2021/08/07 01:53:35;;;;;;;;;2.00;0.00;;;;;23.04;45.30;100005.78;5057850;28;45411;-49
2021/08/07 01:56:06;;;;;;;;;0.50;0.00;;;;;23.04;45.60;100000.50;5039599;28;45398;-48
2021/08/07 01:58:47;;;;;;;;;1.25;1.00;;;;;23.04;45.46;100001.31;5057602;28;45300;-48
2021/08/07 02:01:16;;;;;;;;;1.00;1.00;;;;;23.03;45.57;99994.34;5057989;28;45299;-46
2021/08/07 02:03:43;;;;;;;;;3.50;1.00;;;;;23.03;45.60;99988.25;5058257;28;45497;-51
2021/08/07 02:06:10;;;;;;;;;1.25;0.25;;;;;23.03;45.37;99999.66;5057799;28;45723;-47
2021/08/07 02:08:38;;;;;;;;;1.50;0.50;;;;;23.01;45.55;99989.22;5057625;28;45661;-50
2021/08/07 02:11:04;;;;;;;;;1.25;1.25;;;;;23.02;45.36;99987.41;5057683;28;45420;-53
2021/08/07 02:13:32;;;;;;;;;1.00;1.00;;;;;23.01;45.90;99985.72;5057892;28;45381;-53
2021/08/07 02:15:58;;;;;;;;;1.25;1.00;;;;;23.00;45.20;99987.53;5039633;28;45500;-52
2021/08/07 02:18:26;;;;;;;;;0.75;0.75;;;;;23.02;45.32;99990.03;5057558;28;45741;-53
2021/08/07 02:20:54;;;;;;;;;1.00;1.00;;;;;22.99;45.40;99983.19;5057547;28;45304;-54
2021/08/07 02:23:20;;;;;;;;;1.00;0.00;;;;;22.99;45.10;99983.19;5057618;28;45332;-53
2021/08/07 02:25:51;;;;;;;;;1.75;1.00;;;;;23.00;45.20;99976.97;5057280;28;45562;-51
2021/08/07 02:28:19;;;;;;;;;0.00;0.00;;;;;22.99;45.25;99974.41;5039184;28;45683;-53
2021/08/07 02:30:45;;;;;;;;;0.00;0.00;;;;;23.00;45.27;99976.09;5039618;28;45385;-48
2021/08/07 02:33:12;;;;;;;;;1.75;0.75;;;;;23.00;45.24;99968.16;5057794;28;45561;-55
2021/08/07 02:35:38;;;;;;;;;1.00;1.00;;;;;22.99;45.00;99963.84;5056976;28;45425;-50
2021/08/07 02:38:04;;;;;;;;;0.00;0.00;;;;;22.99;45.25;99963.84;5057048;28;45328;-54
2021/08/07 02:40:31;;;;;;;;;3.00;0.00;;;;;22.98;45.37;99964.84;5057268;28;45545;-54
2021/08/07 02:42:57;;;;;;;;;0.75;0.75;;;;;22.98;45.14;99959.56;5057332;28;45572;-47
2021/08/07 02:45:23;;;;;;;;;1.50;1.00;;;;;22.98;44.83;99959.56;5056953;28;45422;-46
2021/08/07 02:47:50;;;;;;;;;1.75;1.00;;;;;22.98;45.54;99963.03;5056902;28;45403;-50
2021/08/07 02:50:17;;;;;;;;;0.25;0.00;;;;;22.97;45.21;99963.97;5057110;28;45273;-55
2021/08/07 02:52:44;;;;;;;;;1.25;1.25;;;;;22.97;45.07;99961.34;5057473;28;45443;-53
2021/08/07 02:55:09;;;;;;;;;0.00;0.00;;;;;22.97;45.15;99963.16;5056903;28;45435;-49
2021/08/07 02:57:35;;;;;;;;;1.50;1.00;;;;;22.96;45.20;99942.97;5056691;28;45429;-52
2021/08/07 03:00:01;;;;;;;;;1.00;0.00;;;;;22.96;45.17;99951.72;5056928;28;45399;-62
2021/08/07 03:02:26;;;;;;;;;0.75;0.75;;;;;22.94;45.33;99948.34;5057099;28;45474;-59
2021/08/07 03:04:51;;;;;;;;;0.25;0.25;;;;;22.95;45.27;99947.41;5056645;28;45490;-61
2021/08/07 03:07:17;;;;;;;;;2.00;1.00;;;;;22.95;45.20;99949.22;5056717;28;45323;-61
2021/08/07 03:09:42;;;;;;;;;3.00;2.00;;;;;22.95;45.41;99951.84;5057148;28;45456;-64
2021/08/07 03:12:08;;;;;;;;;1.50;1.50;;;;;22.90;45.22;99941.66;5057015;28;45243;-56
2021/08/07 03:14:34;;;;;;;;;4.00;1.00;;;;;22.92;45.17;99938.88;5056234;28;45333;-56
2021/08/07 03:16:59;;;;;;;;;1.25;1.00;;;;;22.93;45.46;99941.38;5056678;28;45291;-46
2021/08/07 03:19:24;;;;;;;;;1.75;1.50;;;;;22.94;44.97;99942.25;5056600;28;45377;-50
2021/08/07 03:21:50;;;;;;;;;0.50;0.50;;;;;22.93;45.44;99938.75;5056844;28;45503;-51
2021/08/07 03:24:15;;;;;;;;;3.00;2.00;;;;;22.93;45.37;99930.81;5056635;28;45511;-54
2021/08/07 03:26:41;;;;;;;;;2.25;1.25;;;;;22.93;45.42;99935.28;5038251;28;46166;-53
2021/08/07 03:29:06;;;;;;;;;1.00;1.00;;;;;22.90;45.42;99924.94;5056614;28;45347;-58
2021/08/07 03:31:32;;;;;;;;;2.25;1.25;;;;;22.91;45.48;99924.00;5056629;28;45307;-45
2021/08/07 03:33:57;;;;;;;;;1.00;1.00;;;;;22.90;45.72;99930.22;5056302;28;45460;-54
2021/08/07 03:36:22;;;;;;;;;2.00;2.00;;;;;22.90;45.51;99924.94;5056205;28;45237;-46
2021/08/07 03:38:48;;;;;;;;;1.00;1.00;;;;;22.87;45.75;99915.47;5056481;28;45176;-48
2021/08/07 03:41:13;;;;;;;;;1.50;0.00;;;;;22.84;45.51;99908.63;5056743;28;45652;-48
2021/08/07 03:43:39;;;;;;;;;1.00;1.00;;;;;22.81;45.65;99911.53;5056162;28;46728;-49
2021/08/07 03:46:04;;;;;;;;;1.00;0.75;;;;;22.84;45.48;99921.84;5038190;28;45688;-50
2021/08/07 03:48:30;;;;;;;;;1.00;1.00;;;;;22.85;45.56;99923.53;5038256;28;45352;-46
2021/08/07 03:50:55;;;;;;;;;1.00;1.00;;;;;22.83;45.95;99908.75;5056448;28;45486;-48
2021/08/07 03:53:20;;;;;;;;;1.75;1.00;;;;;22.83;45.49;99908.75;5055881;28;45238;-45
2021/08/07 03:55:45;;;;;;;;;1.25;0.50;;;;;22.81;45.57;99902.75;5056281;28;45315;-46
2021/08/07 03:58:11;;;;;;;;;1.00;1.00;;;;;22.82;45.65;99904.44;5056172;28;45392;-46
2021/08/07 04:00:37;;;;;;;;;2.00;1.00;;;;;22.82;45.59;99896.53;5059616;28;45297;-45
2021/08/07 04:03:03;;;;;;;;;2.00;1.00;;;;;22.79;45.61;99896.75;5059606;28;45403;-56
2021/08/07 04:05:28;;;;;;;;;1.00;0.50;;;;;22.78;45.78;99895.06;5059561;28;45381;-63
2021/08/07 04:08:05;;;;;;;;;2.75;1.00;;;;;22.79;45.75;99894.94;5059652;28;45428;-59
2021/08/07 04:10:31;;;;;;;;;1.00;1.00;;;;;22.78;45.41;99890.63;5059779;28;45340;-53
2021/08/07 04:12:56;;;;;;;;;2.75;1.00;;;;;22.77;45.96;99894.22;5059233;28;46696;-55
2021/08/07 04:15:22;;;;;;;;;1.00;1.00;;;;;22.79;45.80;99904.69;5059305;28;45528;-61
2021/08/07 04:17:47;;;;;;;;;1.00;1.00;;;;;22.77;45.92;99896.88;5059715;28;45375;-54
2021/08/07 04:20:12;;;;;;;;;1.50;1.50;;;;;22.76;45.88;99891.72;5059647;28;45344;-63
2021/08/07 04:22:38;;;;;;;;;0.00;0.00;;;;;22.77;45.71;99899.50;5041061;28;47478;-57
2021/08/07 04:25:05;;;;;;;;;1.00;1.00;;;;;22.77;46.04;99899.50;5059141;28;45465;-54
2021/08/07 04:27:30;;;;;;;;;1.00;1.00;;;;;22.79;45.83;99908.16;5059266;28;45348;-46
2021/08/07 04:29:56;;;;;;;;;0.00;0.00;;;;;22.76;45.97;99889.94;5059519;28;45448;-49
2021/08/07 04:32:22;;;;;;;;;2.00;1.25;;;;;22.75;46.10;99885.59;5058925;28;45330;-46
2021/08/07 04:34:48;;;;;;;;;2.00;1.75;;;;;22.76;45.91;99895.22;5041559;28;45374;-50
2021/08/07 04:37:13;;;;;;;;;1.50;1.00;;;;;22.76;45.96;99897.00;5059215;28;45359;-46
2021/08/07 04:39:39;;;;;;;;;2.00;2.00;;;;;22.75;45.90;99890.03;5059284;28;45325;-49
2021/08/07 04:42:04;;;;;;;;;1.00;1.00;;;;;22.75;46.17;99882.97;5058847;28;46775;-53
2021/08/07 04:44:29;;;;;;;;;3.00;2.00;;;;;22.72;45.96;99880.56;5058927;28;45266;-60
2021/08/07 04:46:55;;;;;;;;;2.00;2.00;;;;;22.72;46.07;99879.69;5059205;28;45324;-63
2021/08/07 04:49:21;;;;;;;;;1.25;1.25;;;;;22.73;46.07;99887.53;5059678;28;45482;-56
2021/08/07 04:51:46;;;;;;;;;1.25;1.25;;;;;22.72;45.92;99880.56;5058882;28;46269;-59
2021/08/07 04:54:11;;;;;;;;;1.25;1.25;;;;;22.72;46.10;99875.28;5058540;28;48635;-63
2021/08/07 04:56:38;;;;;;;;;3.25;0.50;;;;;22.72;46.12;99883.19;5059023;28;45383;-60
2021/08/07 04:59:04;;;;;;;;;1.50;1.50;;;;;22.73;46.07;99878.75;5058945;28;45292;-63
2021/08/07 05:01:29;;;;;;;;;1.00;1.00;;;;;22.72;46.21;99879.69;5058613;28;45368;-62
2021/08/07 05:03:54;;;;;;;;;1.00;1.00;;;;;22.71;46.37;99881.53;5058842;28;45561;-59
2021/08/07 05:06:20;;;;;;;;;2.50;2.50;;;;;22.67;46.26;99865.09;5059125;28;45342;-55
2021/08/07 05:08:45;;;;;;;;;1.00;1.00;;;;;22.71;46.14;99876.22;5058933;28;45624;-56
2021/08/07 05:11:10;;;;;;;;;1.50;1.25;;;;;22.70;46.13;99871.91;5057074;28;48822;-58
2021/08/07 05:13:36;;;;;;;;;2.25;2.00;;;;;22.69;46.33;99870.22;5058256;28;48308;-50
2021/08/07 05:16:01;;;;;;;;;2.00;2.00;;;;;22.69;46.22;99872.88;5058450;28;45419;-47
2021/08/07 05:18:27;;;;;;;;;1.00;1.00;;;;;22.69;46.42;99872.88;5058715;28;45268;-54
2021/08/07 05:20:53;;;;;;;;;1.25;0.50;;;;;22.69;46.28;99867.59;5040671;28;48149;-49
2021/08/07 05:23:18;;;;;;;;;1.00;1.00;;;;;22.68;46.46;99868.53;5058400;28;45553;-50
2021/08/07 05:25:43;;;;;;;;;1.50;1.25;;;;;22.68;46.27;99860.63;5058561;28;45635;-50
2021/08/07 05:28:09;;;;;;;;;1.25;1.25;;;;;22.67;46.26;99858.94;5040465;28;45360;-45
2021/08/07 05:30:34;;;;;;;;;1.75;1.75;;;;;22.65;46.65;99852.97;5039890;28;46886;-45
2021/08/07 05:32:59;;;;;;;;;1.00;1.00;;;;;22.64;46.67;99844.19;5058082;28;45308;-46
2021/08/07 05:35:25;;;;;;;;;2.50;1.25;;;;;22.63;46.58;99844.31;5040239;28;45499;-45
2021/08/07 05:37:50;;;;;;;;;2.25;1.25;;;;;22.62;46.59;99845.28;5058575;28;45193;-50
2021/08/07 05:40:15;;;;;;;;;3.25;1.00;;;;;22.63;46.51;99844.31;5058000;28;45229;-45
2021/08/07 05:42:41;;;;;;;;;3.75;1.00;;;;;22.64;46.72;99846.00;5057900;28;45363;-53
2021/08/07 05:45:07;;;;;;;;;0.25;0.25;;;;;22.64;46.44;99853.94;5058122;28;45324;-49
2021/08/07 05:47:33;;;;;;;;;1.00;1.00;;;;;22.62;46.51;99842.63;5058239;28;45539;-52
2021/08/07 05:49:58;;;;;;;;;1.25;1.00;;;;;22.64;46.71;99851.28;5057761;28;45658;-48
2021/08/07 05:52:25;;;;;;;;;2.00;1.00;;;;;22.63;46.56;99849.59;5058032;28;45229;-48
2021/08/07 05:54:51;;;;;;;;;1.75;1.75;;;;;22.62;46.85;99847.94;5058347;28;45429;-45
2021/08/07 05:57:17;;;;;;;;;1.25;1.25;;;;;22.63;46.71;99849.59;5058084;28;45403;-51
2021/08/07 05:59:42;;;;;;;;;2.00;2.00;;;;;22.62;46.71;99848.75;5057657;28;45498;-48
2021/08/07 06:02:08;;;;;;;;;3.00;2.50;;;;;22.63;46.72;99837.22;5057643;28;45477;-45
2021/08/07 06:04:33;;;;;;;;;1.50;1.50;;;;;22.64;46.95;99848.66;5057811;28;45383;-45
2021/08/07 06:06:58;;;;;;;;;3.50;3.00;;;;;22.64;46.78;99844.19;5057836;28;45564;-49
2021/08/07 06:09:25;;;;;;;;;2.00;2.00;;;;;22.64;46.83;99832.78;5057782;28;45404;-46
2021/08/07 06:11:50;;;;;;;;;2.00;1.25;;;;;22.66;46.81;99846.69;5057913;28;45737;-48
2021/08/07 06:14:16;;;;;;;;;2.00;2.00;;;;;22.67;46.81;99851.88;5057616;28;45245;-46
2021/08/07 06:16:41;;;;;;;;;2.00;2.00;;;;;22.68;46.75;99845.63;5057532;28;45604;-43
2021/08/07 06:19:07;;;;;;;;;1.75;1.75;;;;;22.69;46.75;99846.47;5057149;28;45375;-44
2021/08/07 06:21:32;;;;;;;;;1.00;1.00;;;;;22.73;46.96;99847.03;5056890;28;45312;-48
2021/08/07 06:23:58;;;;;;;;;1.25;1.25;;;;;22.70;46.80;99840.22;5057475;28;45598;-52
2021/08/07 06:26:26;;;;;;;;;1.00;1.00;;;;;22.71;46.98;99847.19;5057850;28;45508;-48
2021/08/07 06:28:52;;;;;;;;;2.75;2.00;;;;;22.70;46.90;99846.34;5057458;28;46901;-45
2021/08/07 06:31:17;;;;;;;;;3.00;1.25;;;;;22.69;46.76;99843.81;5039125;28;45450;-49
2021/08/07 06:33:43;;;;;;;;;1.00;1.00;;;;;22.64;47.01;99836.25;5057256;28;45345;-48
2021/08/07 06:36:08;;;;;;;;;3.25;2.50;;;;;22.68;47.15;99842.13;5039322;28;45626;-50
2021/08/07 06:38:34;;;;;;;;;2.25;2.25;;;;;22.68;46.50;99843.00;5057105;28;46598;-45
2021/08/07 06:41:00;;;;;;;;;2.00;2.00;;;;;22.68;47.01;99839.50;5057083;28;45336;-54
2021/08/07 06:43:25;;;;;;;;;3.00;1.50;;;;;22.69;46.94;99838.53;5057502;28;45587;-45
2021/08/07 06:45:51;;;;;;;;;1.00;1.00;;;;;22.70;47.00;99829.66;5057207;28;45578;-47
2021/08/07 06:48:17;;;;;;;;;3.50;1.75;;;;;22.71;47.04;99836.63;5056862;28;47107;-53
2021/08/07 06:50:42;;;;;;;;;0.50;0.50;;;;;22.70;47.04;99827.00;5056919;28;45418;-54
2021/08/07 06:53:08;;;;;;;;;3.25;1.50;;;;;22.73;47.05;99837.34;5057066;28;45264;-49
2021/08/07 06:55:33;;;;;;;;;4.00;2.00;;;;;22.73;47.01;99829.41;5057185;28;45206;-46
2021/08/07 06:57:59;;;;;;;;;1.00;1.00;;;;;22.74;47.03;99830.25;5056777;28;46309;-46
2021/08/07 07:00:24;;;;;;;;;1.25;1.25;;;;;22.73;46.96;99826.78;5057284;28;45239;-45
2021/08/07 07:02:49;;;;;;;;;2.50;1.75;;;;;22.74;47.07;99831.09;5056997;28;45694;-45
2021/08/07 07:05:15;;;;;;;;;1.50;1.50;;;;;22.75;47.08;99832.78;5056573;28;45312;-49
2021/08/07 07:07:40;;;;;;;;;1.00;1.00;;;;;22.76;47.04;99823.03;5056629;28;45472;-54
2021/08/07 07:10:10;;;;;;;;;2.00;2.00;;;;;22.78;46.99;99831.69;5056741;28;45331;-47
2021/08/07 07:12:36;;;;;;;;;1.00;1.00;;;;;22.78;47.11;99835.16;5056668;28;45277;-45
2021/08/07 07:15:03;;;;;;;;;2.25;1.00;;;;;22.78;47.07;99832.50;5038915;28;45653;-46
2021/08/07 07:17:29;;;;;;;;;2.00;1.00;;;;;22.80;47.10;99833.22;5056706;28;45438;-46
2021/08/07 07:19:55;;;;;;;;;2.50;2.00;;;;;22.79;47.27;99822.78;5056775;28;45228;-48
2021/08/07 07:22:20;;;;;;;;;1.50;1.00;;;;;22.84;47.10;99833.81;5056555;28;45357;-47
2021/08/07 07:24:46;;;;;;;;;1.75;1.00;;;;;22.84;47.05;99828.53;5038653;28;45490;-48
2021/08/07 07:27:12;;;;;;;;;1.75;1.75;;;;;22.81;47.10;99824.34;5056317;28;46479;-47
2021/08/07 07:29:37;;;;;;;;;1.00;1.00;;;;;22.84;47.10;99826.75;5056384;28;45382;-45
2021/08/07 07:32:05;;;;;;;;;8.00;2.00;;;;;22.85;47.22;99817.84;5056488;28;45260;-46
2021/08/07 07:34:30;;;;;;;;;1.75;1.00;;;;;22.87;47.26;99824.81;5055618;28;45276;-48
2021/08/07 07:36:56;;;;;;;;;3.00;2.25;;;;;22.89;47.12;99820.22;5056546;28;46270;-44
2021/08/07 07:39:21;;;;;;;;;2.75;2.00;;;;;22.89;47.16;99813.16;5056266;28;45391;-56
2021/08/07 07:41:46;;;;;;;;;1.00;1.00;;;;;22.91;47.22;99815.66;5056236;28;45358;-57
2021/08/07 07:44:12;;;;;;;;;1.50;1.50;;;;;22.92;47.10;99812.91;5056478;28;45488;-45
2021/08/07 07:46:37;;;;;;;;;1.50;1.00;;;;;22.92;47.27;99820.84;5055972;28;48815;-44
2021/08/07 07:49:03;;;;;;;;;2.25;2.25;;;;;22.95;47.13;99817.09;5056100;28;45363;-45
2021/08/07 07:51:28;;;;;;;;;1.50;0.75;;;;;22.97;47.33;99809.88;5056457;28;45355;-48
2021/08/07 07:53:53;;;;;;;;;1.00;1.00;;;;;22.96;47.21;99808.22;5056293;28;45482;-47
2021/08/07 07:56:20;;;;;;;;;2.00;1.00;;;;;22.95;47.38;99801.25;5055839;28;46688;-45
2021/08/07 07:58:45;;;;;;;;;1.50;1.50;;;;;22.97;47.05;99804.59;5037878;28;45824;-44
2021/08/07 08:01:11;;;;;;;;;0.75;0.75;;;;;22.98;47.03;99798.34;5056356;28;45305;-61
2021/08/07 08:03:36;;;;;;;;;1.25;1.25;;;;;22.99;47.01;99794.72;5056090;28;45261;-59
2021/08/07 08:06:02;;;;;;;;;2.25;1.25;;;;;22.96;47.31;99784.44;5055788;28;47309;-44
2021/08/07 08:08:27;;;;;;;;;1.00;1.00;;;;;22.98;47.13;99793.91;5056069;28;45379;-49
2021/08/07 08:10:53;;;;;;;;;3.75;2.00;;;;;22.99;47.27;99790.28;5055950;28;45448;-53
2021/08/07 08:13:20;;;;;;;;;2.00;1.00;;;;;23.00;47.16;99783.19;5056070;28;45300;-55
2021/08/07 08:15:46;;;;;;;;;3.25;2.00;;;;;23.00;47.13;99788.47;5037507;28;47155;-47
2021/08/07 08:18:11;;;;;;;;;3.50;1.50;;;;;22.99;47.12;99786.78;5055930;28;45622;-51
2021/08/07 08:20:38;;;;;;;;;5.50;3.00;;;;;23.00;47.19;99785.84;5037753;28;45253;-44
2021/08/07 08:23:04;;;;;;;;;2.00;2.00;;;;;23.00;47.27;99772.63;5055890;28;45407;-44
2021/08/07 08:25:29;;;;;;;;;3.00;2.00;;;;;23.02;47.29;99770.69;5055936;28;46352;-48
2021/08/07 08:27:55;;;;;;;;;2.00;2.00;;;;;23.03;47.34;99776.84;5055709;28;45325;-50
2021/08/07 08:30:21;;;;;;;;;2.00;2.00;;;;;23.04;47.40;99774.06;5055654;28;45358;-56
2021/08/07 08:32:47;;;;;;;;;4.25;1.25;;;;;23.05;47.12;99767.81;5055846;28;45310;-58
2021/08/07 08:35:12;;;;;;;;;1.50;1.50;;;;;23.05;47.13;99773.09;5055541;28;45567;-59
2021/08/07 08:37:38;;;;;;;;;2.50;1.75;;;;;23.06;46.89;99766.84;5055530;28;45383;-59
2021/08/07 08:40:05;;;;;;;;;5.50;1.50;;;;;23.06;47.35;99771.28;5055705;28;45304;-56
2021/08/07 08:42:31;;;;;;;;;2.00;2.00;;;;;23.05;47.11;99759.88;5056068;28;45653;-58
2021/08/07 08:44:57;;;;;;;;;2.25;1.25;;;;;23.04;47.07;99758.19;5038230;28;47297;-51
2021/08/07 08:47:24;;;;;;;;;2.00;1.00;;;;;23.05;47.23;99759.88;5058846;28;45204;-55
2021/08/07 08:49:51;;;;;;;;;1.25;1.25;;;;;23.04;47.08;99747.63;5059083;28;45174;-52
2021/08/07 08:52:17;;;;;;;;;3.25;2.00;;;;;23.03;47.12;99751.22;5059109;28;45509;-45
2021/08/07 08:54:43;;;;;;;;;1.25;1.25;;;;;23.03;47.26;99745.94;5058570;28;46314;-46
2021/08/07 08:57:08;;;;;;;;;1.00;1.00;;;;;23.04;46.99;99749.44;5058450;28;45431;-47
2021/08/07 08:59:34;;;;;;;;;2.00;2.00;;;;;23.03;47.04;99748.59;5058939;28;45455;-45
2021/08/07 09:02:00;;;;;;;;;0.50;0.50;;;;;23.02;46.98;99744.28;5059213;28;45533;-45
2021/08/07 09:04:26;;;;;;;;;2.00;1.00;;;;;22.98;46.90;99740.22;5058468;28;45292;-46
2021/08/07 09:06:52;;;;;;;;;1.75;1.75;;;;;23.00;47.35;99741.75;5058593;28;45236;-46
2021/08/07 09:09:17;;;;;;;;;1.75;1.75;;;;;23.01;47.19;99750.50;5058701;28;45217;-52
2021/08/07 09:11:52;;;;;;;;;3.25;1.75;;;;;23.00;47.36;99751.47;5058853;28;45174;-50
2021/08/07 09:14:28;;;;;;;;;1.25;1.25;;;;;23.00;47.60;99754.13;5058235;28;46647;-51
2021/08/07 09:17:04;;;;;;;;;1.00;1.00;;;;;22.99;47.50;99752.44;5058200;28;45706;-48
2021/08/07 09:19:38;;;;;;;;;2.00;2.00;;;;;22.98;47.66;99740.22;5058432;28;45402;-50
2021/08/07 09:22:08;;;;;;;;;2.00;1.00;;;;;22.98;48.07;99740.22;5058936;28;45523;-46
2021/08/07 09:24:35;;;;;;;;;2.50;1.50;;;;;22.97;48.16;99736.72;5058451;28;45355;-45
2021/08/07 09:27:04;;;;;;;;;1.00;1.00;;;;;22.97;48.25;99731.44;5058420;28;45348;-50
2021/08/07 09:29:40;;;;;;;;;2.00;2.00;;;;;22.99;48.32;99739.22;5058415;28;45365;-45
2021/08/07 09:32:07;;;;;;;;;2.00;2.00;;;;;22.99;48.45;99734.81;5058562;28;45481;-45
2021/08/07 09:34:32;;;;;;;;;1.00;1.00;;;;;23.02;48.56;99728.41;5058345;28;46140;-52
2021/08/07 09:36:58;;;;;;;;;1.50;1.25;;;;;23.03;48.58;99732.72;5058267;28;45434;-49
2021/08/07 09:39:39;;;;;;;;;1.00;1.00;;;;;23.03;48.54;99730.09;5058239;28;45394;-52
2021/08/07 09:42:05;;;;;;;;;3.50;2.75;;;;;23.03;48.71;99730.09;5058676;28;45427;-49
2021/08/07 09:44:31;;;;;;;;;2.00;2.00;;;;;23.03;48.71;99730.09;5058113;28;47514;-56
2021/08/07 09:47:06;;;;;;;;;1.50;1.00;;;;;23.04;49.08;99733.59;5058045;28;45825;-45
2021/08/07 09:49:36;;;;;;;;;1.50;1.50;;;;;23.04;49.63;99725.66;5058536;28;45434;-49
2021/08/07 09:52:02;;;;;;;;;3.00;1.00;;;;;23.04;49.09;99731.78;5058505;28;45241;-51
2021/08/07 09:54:45;;;;;;;;;1.75;1.50;;;;;23.03;48.79;99723.97;5057647;28;46444;-45
2021/08/07 09:57:31;;;;;;;;;1.50;1.00;;;;;23.04;48.99;99739.69;5056951;28;45620;-44
2021/08/07 09:59:57;;;;;;;;;3.00;2.00;;;;;23.04;49.28;99731.78;5057886;28;45252;-56
2021/08/07 10:02:31;;;;;;;;;1.25;1.25;;;;;23.04;49.31;99741.53;5057870;28;45242;-48
2021/08/07 10:04:58;;;;;;;;;1.00;1.00;;;;;23.04;49.61;99734.41;5057543;28;45307;-46
2021/08/07 10:07:24;;;;;;;;;5.25;2.25;;;;;23.03;49.40;99726.63;5057542;28;45265;-45
2021/08/07 10:09:49;;;;;;;;;2.00;2.00;;;;;23.02;49.35;99720.47;5039855;28;45226;-60
2021/08/07 10:12:16;;;;;;;;;1.75;1.75;;;;;23.03;49.46;99734.56;5039823;28;45709;-59
2021/08/07 10:14:43;;;;;;;;;2.00;2.00;;;;;23.01;49.10;99724.94;5057317;28;45802;-60
2021/08/07 10:17:10;;;;;;;;;3.00;1.00;;;;;23.01;49.45;99732.88;5057386;28;45327;-48
2021/08/07 10:19:37;;;;;;;;;3.25;1.50;;;;;23.02;49.31;99725.78;5057868;28;45350;-57
2021/08/07 10:22:06;;;;;;;;;2.50;2.00;;;;;23.01;49.41;99714.38;5057580;28;45494;-61
2021/08/07 10:24:32;;;;;;;;;2.00;2.00;;;;;23.01;49.49;99701.16;5057274;28;46936;-61
2021/08/07 10:26:58;;;;;;;;;1.50;1.50;;;;;23.03;49.67;99698.38;5057317;28;45650;-59
2021/08/07 10:29:29;;;;;;;;;1.25;1.25;;;;;23.03;49.55;99706.31;5056804;28;45830;-52
2021/08/07 10:31:56;;;;;;;;;3.00;2.00;;;;;23.02;49.42;99702.00;5057333;28;45259;-61
2021/08/07 10:34:23;;;;;;;;;1.50;0.75;;;;;23.03;49.56;99706.31;5057085;28;46536;-50
2021/08/07 10:36:49;;;;;;;;;1.00;1.00;;;;;23.03;49.69;99698.38;5039080;28;45364;-48
2021/08/07 10:39:15;;;;;;;;;1.50;1.25;;;;;23.03;49.80;99700.19;5057284;28;45323;-45
2021/08/07 10:41:42;;;;;;;;;2.00;2.00;;;;;23.02;49.73;99683.50;5057443;28;45331;-48
2021/08/07 10:44:12;;;;;;;;;2.00;2.00;;;;;23.03;49.82;99685.16;5057171;28;46202;-49
2021/08/07 10:46:37;;;;;;;;;1.25;0.75;;;;;23.03;49.68;99679.06;5039305;28;45359;-46
2021/08/07 10:49:03;;;;;;;;;1.25;1.25;;;;;23.04;50.00;99678.91;5057158;28;45327;-49
2021/08/07 10:51:30;;;;;;;;;1.25;1.00;;;;;23.05;50.09;99679.75;5057087;28;45569;-54
2021/08/07 10:53:58;;;;;;;;;1.75;1.00;;;;;23.06;49.95;99681.41;5056685;28;46649;-55
2021/08/07 10:56:26;;;;;;;;;2.00;1.00;;;;;23.06;49.80;99689.34;5056762;28;45182;-54
2021/08/07 10:58:52;;;;;;;;;1.00;1.00;;;;;23.06;49.82;99681.41;5056987;28;45445;-58
2021/08/07 11:01:27;;;;;;;;;2.50;1.50;;;;;23.07;49.92;99686.59;5057094;28;45613;-56
2021/08/07 11:04:03;;;;;;;;;2.75;1.00;;;;;23.08;49.99;99677.69;5038700;28;47982;-49
2021/08/07 11:06:53;;;;;;;;;1.00;1.00;;;;;23.10;49.83;99673.09;5056722;28;45394;-52
2021/08/07 11:09:26;;;;;;;;;1.00;1.00;;;;;23.12;50.09;99665.06;5026191;28;45395;-55
2021/08/07 11:12:10;;;;;;;;;3.00;2.00;;;;;23.14;50.13;99657.84;5056758;28;45280;-49
2021/08/07 11:14:35;;;;;;;;;1.00;1.00;;;;;23.15;50.07;99681.50;5056362;28;45438;-47
2021/08/07 11:17:04;;;;;;;;;1.00;1.00;;;;;23.17;50.31;99673.41;5056588;28;45244;-50
2021/08/07 11:20:03;;;;;;;;;1.00;0.00;;;;;23.18;50.24;99669.81;5056561;28;45371;-53
2021/08/07 11:22:40;;;;;;;;;0.75;0.50;;;;;23.19;50.16;99660.09;5056795;28;45364;-53
2021/08/07 11:25:10;;;;;;;;;1.00;1.00;;;;;23.19;50.05;99653.03;5056269;28;46785;-50
2021/08/07 11:27:45;;;;;;;;;1.50;1.25;;;;;23.21;50.10;99652.88;5056732;28;45712;-47
2021/08/07 11:30:21;;;;;;;;;2.00;2.00;;;;;23.23;50.14;99643.00;5056792;28;45328;-47
2021/08/07 11:32:55;;;;;;;;;3.00;2.75;;;;;23.24;49.77;99623.53;5056364;28;45403;-54